Search for the current weather situation

Metar

Metar
TNCE 231255Z AUTO 08013KT 040V110 //// // ///////// 29/23 Q1017 RE//
Decoded Metar

TAF

TAF
TNCE 231255Z AUTO 08013KT 040V110 //// // ///////// 29/23 Q1017 RE//
Decoded TAF
Top